Date,TemperatureHighF,TemperatureAvgF,TemperatureLowF,DewpointHighF,DewpointAvgF,DewpointLowF,HumidityHigh,HumidityAvg,HumidityLow,PressureMaxIn,PressureMinIn,WindSpeedMaxMPH,WindSpeedAvgMPH,GustSpeedMaxMPH,PrecipitationSumIn
2013-2-1,15,5,-3,11,-3,-9,84,70,62,0.00,40.00,21,13,28,0.00
2013-2-2,24,15,3,21,10,-3,92,81,64,0.00,40.00,24,10,29,0.00
2013-2-3,23,18,9,17,11,4,92,77,59,0.00,40.00,23,9,31,0.00
2013-2-4,27,21,10,22,17,5,92,85,77,0.00,40.00,19,12,24,0.00
2013-2-5,31,23,9,28,18,3,90,81,71,0.00,40.00,19,10,29,0.00
2013-2-6,41,30,17,32,24,13,93,79,60,0.00,40.00,19,10,24,0.00
2013-2-7,33,32,29,32,32,27,97,96,93,0.00,40.00,21,11,32,0.00
2013-2-8,29,23,16,28,20,13,97,87,78,0.00,40.00,24,13,32,0.00
2013-2-9,32,27,22,28,24,20,95,88,80,0.00,40.00,27,14,32,0.00
2013-2-10,45,37,27,44,35,26,97,93,63,0.00,40.00,29,20,39,0.00
2013-2-11,41,32,27,32,24,20,82,73,67,0.00,40.00,39,28,53,0.00
2013-2-12,31,27,24,24,21,19,92,79,64,0.00,40.00,21,10,29,0.00
2013-2-13,42,32,24,31,27,22,95,84,59,0.00,40.00,14,7,19,0.00
2013-2-14,39,35,32,32,29,23,90,78,59,0.00,40.00,24,14,34,0.00
2013-2-15,32,26,18,29,16,9,90,66,42,0.00,40.00,24,15,30,0.00
2013-2-16,22,16,9,9,6,3,79,65,52,0.00,40.00,19,12,29,0.00
2013-2-17,31,19,6,23,12,3,86,72,50,0.00,40.00,24,9,29,0.00
2013-2-18,50,36,25,45,31,20,97,82,60,0.00,40.00,37,20,46,0.00
2013-2-19,25,14,7,21,7,0,87,76,71,0.00,40.00,39,26,50,0.00
2013-2-20,20,12,4,11,5,-2,85,73,64,0.00,40.00,19,11,26,0.00
2013-2-21,28,21,12,25,18,9,96,87,81,0.00,40.00,30,13,39,0.00
2013-2-22,33,27,22,31,24,21,96,90,81,0.00,40.00,24,16,34,0.00
2013-2-23,28,22,15,22,17,12,92,81,69,0.00,40.00,18,11,24,0.00
2013-2-24,36,24,12,22,17,10,93,75,44,0.00,40.00,11,5,14,0.00
2013-2-25,41,31,22,30,25,19,92,79,58,0.00,40.00,19,9,25,0.00
2013-2-26,34,32,31,31,30,27,98,89,73,0.00,40.00,33,21,42,0.00
2013-2-27,33,31,29,30,29,28,97,94,84,0.00,40.00,20,15,25,0.00
2013-2-28,35,32,28,30,28,21,96,85,72,0.00,40.00,19,14,24,0.00